• Join FlightAware (Why Join?)
  • Login
  • US Flag 
03:14AM EDT


 

Airport Tracker/Info


-or-


 

Live Flight TrackerFlight Track Log ✈ AAL2360 ✈ 28-Apr-2013 ✈ KDFW - KORD

Flight Track Log - Related Links

Times and Time Zones

All times are in EDT time to prevent confusion due to time zone crossing. See the AAL2360 flight status page for this flight to view local times or setup timezone preferences in your user account.

Time Position Orientation Groundspeed Altitude Reporting Facility
EDT Latitude Longitude Course Direction KTS MPH feet Rate Location/Type
04:34PM 32.8833 -97.0333 North 171 197 1,600  Level Dallas / Fort Worth TRACON
04:35PM 32.8500 -97.0167 157° South 186 214 3,000 1,740 Climbing Dallas / Fort Worth TRACON
04:36PM 32.8000 -97.0000 164° South 241 277 4,600 2,100 Climbing Dallas / Fort Worth TRACON
04:37PM 32.8254 -96.8049 10° North  Level FlightAware Approximate
04:37PM 32.7667 -96.9167 115° Southeast 264 304 7,200  Level Dallas / Fort Worth TRACON
04:38PM 32.9351 -96.8000 North  Level FlightAware Approximate
04:38PM 32.7833 -96.8333 77° East 295 339 9,600  Level Dallas / Fort Worth TRACON
04:39PM 33.0451 -96.8000 North  Level FlightAware Approximate
04:40PM 32.9906 -96.8117 North 338 389 14,700  Level Fort Worth Center
04:41PM 33.1097 -96.8133 359° North 370 426 17,200 2,220 Climbing Fort Worth Center
04:42PM 33.2097 -96.8175 358° North 389 448 19,200 2,040 Climbing Fort Worth Center
04:43PM 33.3350 -96.8192 359° North 405 466 21,300 1,860 Climbing Fort Worth Center
04:44PM 33.4497 -96.8208 359° North 410 472 23,000 1,740 Climbing Fort Worth Center
04:45PM 33.5519 -96.7603 26° Northeast 430 495 24,800 1,740 Climbing Fort Worth Center
04:46PM 33.6683 -96.6872 28° Northeast 430 495 26,500 1,620 Climbing Fort Worth Center
04:47PM 33.7764 -96.6139 29° Northeast 435 501 28,100 1,800 Climbing Fort Worth Center
04:48PM 33.8844 -96.5478 27° Northeast 435 501 30,100 1,440 Climbing Fort Worth Center
04:49PM 33.9906 -96.4817 27° Northeast 429 494 31,000 420 Climbing Fort Worth Center
04:50PM 34.0775 -96.4231 29° Northeast 429 494 31,000  Level Fort Worth Center
04:51PM 34.1936 -96.3211 36° Northeast 423 487 31,000  Level Fort Worth Center
04:52PM 34.2931 -96.2394 34° Northeast 433 498 31,000  Level Fort Worth Center
04:53PM 34.3925 -96.1578 34° Northeast 438 504 31,000  Level Fort Worth Center
04:54PM 34.4917 -96.0756 34° Northeast 432 497 31,000  Level Fort Worth Center
04:55PM 34.5931 -95.9933 34° Northeast 437 503 31,000  Level Fort Worth Center
04:56PM 34.6944 -95.9108 34° Northeast 437 503 31,000  Level Fort Worth Center
04:57PM 34.7956 -95.8256 35° Northeast 437 503 31,000  Level Fort Worth Center
04:58PM 34.8758 -95.7558 35° Northeast 437 503 31,000  Level Fort Worth Center
04:59PM 34.9831 -95.6625 35° Northeast 437 503 31,000  Level Fort Worth Center
05:00PM 35.0800 -95.5717 37° Northeast 437 503 31,000  Level Fort Worth Center
05:01PM 35.1744 -95.4806 38° Northeast 432 497 31,000  Level Fort Worth Center
05:03PM 35.3683 -95.2992 37° Northeast 450 518 31,000 180 Level Memphis Center
05:04PM 35.4636 -95.2081 38° Northeast 444 511 31,700 840 Climbing Memphis Center
05:05PM 35.5569 -95.1164 39° Northeast 439 505 32,700 600 Climbing Memphis Center
05:06PM 35.6522 -95.0247 38° Northeast 433 498 33,000 120 Climbing Memphis Center
05:07PM 35.7472 -94.9356 37° Northeast 433 498 33,000  Level Memphis Center
05:08PM 35.8403 -94.8433 39° Northeast 433 498 33,000  Level Memphis Center
05:09PM 35.9331 -94.7536 38° Northeast 433 498 33,000  Level Memphis Center
05:10PM 36.0239 -94.6608 40° Northeast 433 498 33,000  Level Memphis Center
05:13PM 36.2419 -94.4497 38° Northeast 423 487 33,000  Level Kansas City Center
05:14PM 36.3342 -94.3583 39° Northeast 424 488 33,000  Level Kansas City Center
05:15PM 36.4267 -94.2681 38° Northeast 424 488 33,000  Level Kansas City Center
05:16PM 36.5375 -94.1575 39° Northeast 425 489 33,000  Level Kansas City Center
05:17PM 36.6300 -94.0656 39° Northeast 426 490 33,000  Level Kansas City Center
05:18PM 36.7258 -93.9722 38° Northeast 430 495 33,000  Level Kansas City Center
05:19PM 36.8192 -93.8806 38° Northeast 429 494 33,000  Level Kansas City Center
05:20PM 36.9106 -93.7867 39° Northeast 426 490 33,000  Level Kansas City Center
05:21PM 37.0058 -93.6911 39° Northeast 425 489 33,000  Level Kansas City Center
05:22PM 37.0992 -93.5967 39° Northeast 429 494 33,000  Level Kansas City Center
05:23PM 37.2122 -93.4842 38° Northeast 430 495 33,000  Level Kansas City Center
05:24PM 37.3075 -93.3925 37° Northeast 430 495 33,000  Level Kansas City Center
05:25PM 37.4019 -93.2981 38° Northeast 432 497 33,000  Level Kansas City Center
05:26PM 37.4972 -93.2081 37° Northeast 429 494 33,000  Level Kansas City Center
05:27PM 37.5939 -93.1169 37° Northeast 430 495 33,000  Level Kansas City Center
05:28PM 37.6922 -93.0272 36° Northeast 433 498 33,000  Level Kansas City Center
05:29PM 37.7881 -92.9353 37° Northeast 432 497 33,000  Level Kansas City Center
05:30PM 37.9036 -92.8275 36° Northeast 427 491 33,000  Level Kansas City Center
05:31PM 37.9872 -92.7483 37° Northeast 428 493 33,000  Level Kansas City Center
05:32PM 38.0831 -92.6581 37° Northeast 429 494 33,000  Level Kansas City Center
05:33PM 38.1967 -92.5519 36° Northeast 430 495 33,000  Level Kansas City Center
05:34PM 38.2933 -92.4581 37° Northeast 431 496 33,000  Level Kansas City Center
05:35PM 38.3906 -92.3658 37° Northeast 430 495 33,000  Level Kansas City Center
05:36PM 38.4867 -92.2742 37° Northeast 430 495 33,000  Level Kansas City Center
05:37PM 38.5808 -92.1825 37° Northeast 426 490 33,000  Level Kansas City Center
05:38PM 38.6747 -92.0908 37° Northeast 425 489 33,000  Level Kansas City Center
05:39PM 38.7869 -91.9831 37° Northeast 422 486 33,000  Level Kansas City Center
05:41PM 38.8817 -91.8911 37° Northeast 422 486 33,000  Level Kansas City Center
05:42PM 38.9767 -91.7986 37° Northeast 425 489 33,000  Level Kansas City Center
05:43PM 39.0706 -91.7069 37° Northeast 424 488 33,000  Level Kansas City Center
05:44PM 39.1625 -91.6175 37° Northeast 424 488 33,000  Level Kansas City Center
05:45PM 39.2575 -91.5253 37° Northeast 426 490 33,000  Level Kansas City Center
05:46PM 39.3522 -91.4325 37° Northeast 426 490 33,000  Level Kansas City Center
05:47PM 39.4650 -91.3194 38° Northeast 426 490 33,000  Level Kansas City Center
05:48PM 39.5606 -91.2256 37° Northeast 429 494 33,000  Level Kansas City Center
05:49PM 39.6550 -91.1333 37° Northeast 427 491 33,000  Level Kansas City Center
05:50PM 39.7497 -91.0378 38° Northeast 429 494 33,000  Level Kansas City Center
05:51PM 39.8553 -90.9342 37° Northeast 425 489 33,000  Level Kansas City Center
05:52PM 39.9478 -90.8392 38° Northeast 423 487 33,000  Level Kansas City Center
05:53PM 40.0408 -90.7464 37° Northeast 422 486 33,000  Level Kansas City Center
05:54PM 40.1339 -90.6508 38° Northeast 423 487 33,000  Level Kansas City Center
05:54PM 40.1758 -90.6072 38° Northeast 424 488 33,000  Level Chicago Center
05:55PM 40.2828 -90.5003 37° Northeast 423 487 33,000  Level Chicago Center
05:57PM 40.3758 -90.4033 38° Northeast 425 489 33,000  Level Chicago Center
05:58PM 40.4689 -90.3089 38° Northeast 424 488 33,000  Level Chicago Center
05:59PM 40.5656 -90.2097 38° Northeast 423 487 33,000  Level Chicago Center
06:00PM 40.6583 -90.1133 38° Northeast 425 489 33,000  Level Chicago Center
06:01PM 40.7508 -90.0181 38° Northeast 425 489 33,000 -420 Level Chicago Center
06:02PM 40.8631 -89.9028 38° Northeast 426 490 32,200 -1,500 Descending Chicago Center
06:03PM 40.9489 -89.7953 43° Northeast 428 493 29,900 -2,460 Descending Chicago Center
06:04PM 41.0258 -89.6517 55° Northeast 449 517 27,200 -2,520 Descending Chicago Center
06:05PM 41.0978 -89.5150 55° Northeast 448 516 24,700 -2,400 Descending Chicago Center
06:06PM 41.1675 -89.3819 55° Northeast 440 506 22,300 -2,280 Descending Chicago Center
06:07PM 41.2358 -89.2528 55° Northeast 430 495 20,000 -2,400 Descending Chicago Center
06:08PM 41.3058 -89.1092 57° Northeast 417 480 17,400 -2,400 Descending Chicago Center
06:09PM 41.3694 -88.9869 55° Northeast 403 464 15,100 -1,980 Descending Chicago Center
06:10PM 41.4308 -88.8694 55° Northeast 391 450 13,400 -1,140 Descending Chicago Center
06:11PM 41.4878 -88.7553 56° Northeast 372 428 12,800 -1,020 Descending Chicago Center
06:12PM 41.5419 -88.6364 59° Northeast 374 430 11,300 -1,260 Descending Chicago Center
06:13PM 41.5947 -88.5019 62° Northeast 339 390 10,200 -1,080 Descending Chicago Center
06:14PM 41.6400 -88.4153 55° Northeast 289 333 9,100 -1,320 Descending Chicago Center
06:15PM 41.7083 -88.3675 28° Northeast 276 318 7,500 -1,020 Descending Chicago Center
06:16PM 41.7783 -88.3289 22° Northeast 270 311 7,000 -780 Descending Chicago Center
06:17PM 41.8472 -88.2914 22° Northeast 267 307 5,900 -1,020 Descending Chicago Center
06:18PM 41.9139 -88.2567 21° North 263 303 5,000 -960 Descending Chicago Center
06:19PM 41.9706 -88.2031 35° Northeast 240 276 4,000 -780 Descending Chicago Center
06:20PM 41.9683 -88.1181 92° East 232 267 3,400 -600 Descending Chicago Center